sensor_id;sensor_type;location;lat;lon;timestamp;temperature;humidity
4615;DHT22;2320;51.362;6.946;2022-10-22T00:01:34;16.30;99.90
4615;DHT22;2320;51.362;6.946;2022-10-22T00:03:59;16.40;99.90
4615;DHT22;2320;51.362;6.946;2022-10-22T00:06:25;16.40;99.90
4615;DHT22;2320;51.362;6.946;2022-10-22T00:08:50;16.40;99.90
4615;DHT22;2320;51.362;6.946;2022-10-22T00:11:17;16.40;99.90
4615;DHT22;2320;51.362;6.946;2022-10-22T00:13:43;16.40;99.90
4615;DHT22;2320;51.362;6.946;2022-10-22T00:16:09;16.30;99.90
4615;DHT22;2320;51.362;6.946;2022-10-22T00:18:35;16.30;99.90
4615;DHT22;2320;51.362;6.946;2022-10-22T00:21:00;16.30;99.90
4615;DHT22;2320;51.362;6.946;2022-10-22T00:23:26;16.40;99.90
4615;DHT22;2320;51.362;6.946;2022-10-22T00:25:52;16.40;99.90
4615;DHT22;2320;51.362;6.946;2022-10-22T00:28:18;16.30;99.90
4615;DHT22;2320;51.362;6.946;2022-10-22T00:30:43;16.40;99.90
4615;DHT22;2320;51.362;6.946;2022-10-22T00:33:09;16.30;99.90
4615;DHT22;2320;51.362;6.946;2022-10-22T00:35:34;16.40;99.90
4615;DHT22;2320;51.362;6.946;2022-10-22T00:38:00;16.30;99.90
4615;DHT22;2320;51.362;6.946;2022-10-22T00:40:25;16.30;99.90
4615;DHT22;2320;51.362;6.946;2022-10-22T00:42:51;16.40;99.90
4615;DHT22;2320;51.362;6.946;2022-10-22T00:45:19;16.40;99.90
4615;DHT22;2320;51.362;6.946;2022-10-22T00:47:50;16.40;99.90
4615;DHT22;2320;51.362;6.946;2022-10-22T00:50:39;16.40;99.90
4615;DHT22;2320;51.362;6.946;2022-10-22T00:53:02;16.40;99.90
4615;DHT22;2320;51.362;6.946;2022-10-22T00:55:28;16.40;99.90
4615;DHT22;2320;51.362;6.946;2022-10-22T00:57:54;16.40;99.90
4615;DHT22;2320;51.362;6.946;2022-10-22T01:00:20;16.30;99.90
4615;DHT22;2320;51.362;6.946;2022-10-22T01:02:47;16.40;99.90
4615;DHT22;2320;51.362;6.946;2022-10-22T01:05:13;16.40;99.90
4615;DHT22;2320;51.362;6.946;2022-10-22T01:07:40;16.40;99.90
4615;DHT22;2320;51.362;6.946;2022-10-22T01:12:43;16.40;99.90
4615;DHT22;2320;51.362;6.946;2022-10-22T01:17:46;16.40;99.90
4615;DHT22;2320;51.362;6.946;2022-10-22T01:23:00;16.40;99.90
4615;DHT22;2320;51.362;6.946;2022-10-22T01:25:33;16.40;99.90
4615;DHT22;2320;51.362;6.946;2022-10-22T01:30:34;16.40;99.90
4615;DHT22;2320;51.362;6.946;2022-10-22T01:33:01;16.50;99.90
4615;DHT22;2320;51.362;6.946;2022-10-22T01:35:30;16.40;99.90
4615;DHT22;2320;51.362;6.946;2022-10-22T01:37:57;16.40;99.90
4615;DHT22;2320;51.362;6.946;2022-10-22T01:40:24;16.40;99.90
4615;DHT22;2320;51.362;6.946;2022-10-22T01:42:59;16.40;99.90
4615;DHT22;2320;51.362;6.946;2022-10-22T01:45:26;16.40;99.90
4615;DHT22;2320;51.362;6.946;2022-10-22T01:47:57;16.40;99.90
4615;DHT22;2320;51.362;6.946;2022-10-22T02:00:19;16.40;99.90
4615;DHT22;2320;51.362;6.946;2022-10-22T02:02:59;16.50;99.90
4615;DHT22;2320;51.362;6.946;2022-10-22T02:05:29;16.40;99.90
4615;DHT22;2320;51.362;6.946;2022-10-22T02:07:58;16.40;99.90
4615;DHT22;2320;51.362;6.946;2022-10-22T02:10:25;16.40;99.90
4615;DHT22;2320;51.362;6.946;2022-10-22T02:12:52;16.30;99.90
4615;DHT22;2320;51.362;6.946;2022-10-22T02:15:18;16.30;99.90
4615;DHT22;2320;51.362;6.946;2022-10-22T02:17:45;16.30;99.90
4615;DHT22;2320;51.362;6.946;2022-10-22T02:20:18;16.30;99.90
4615;DHT22;2320;51.362;6.946;2022-10-22T02:22:45;16.30;99.90
4615;DHT22;2320;51.362;6.946;2022-10-22T02:25:12;16.30;99.90
4615;DHT22;2320;51.362;6.946;2022-10-22T02:27:40;16.30;99.90
4615;DHT22;2320;51.362;6.946;2022-10-22T02:30:08;16.20;99.90
4615;DHT22;2320;51.362;6.946;2022-10-22T02:32:42;16.20;99.90
4615;DHT22;2320;51.362;6.946;2022-10-22T02:35:10;16.30;99.90
4615;DHT22;2320;51.362;6.946;2022-10-22T02:37:37;16.30;99.90
4615;DHT22;2320;51.362;6.946;2022-10-22T02:40:04;16.30;99.90
4615;DHT22;2320;51.362;6.946;2022-10-22T02:42:30;16.20;99.90
4615;DHT22;2320;51.362;6.946;2022-10-22T02:44:55;16.20;99.90
4615;DHT22;2320;51.362;6.946;2022-10-22T02:47:21;16.20;99.90
4615;DHT22;2320;51.362;6.946;2022-10-22T02:49:46;16.20;99.90
4615;DHT22;2320;51.362;6.946;2022-10-22T02:52:12;16.20;99.90
4615;DHT22;2320;51.362;6.946;2022-10-22T02:54:37;16.20;99.90
4615;DHT22;2320;51.362;6.946;2022-10-22T02:57:03;16.20;99.90
4615;DHT22;2320;51.362;6.946;2022-10-22T02:59:28;16.20;99.90
4615;DHT22;2320;51.362;6.946;2022-10-22T03:01:54;16.10;99.90
4615;DHT22;2320;51.362;6.946;2022-10-22T03:04:19;16.10;99.90
4615;DHT22;2320;51.362;6.946;2022-10-22T03:06:45;16.10;99.90
4615;DHT22;2320;51.362;6.946;2022-10-22T03:09:12;16.10;99.90
4615;DHT22;2320;51.362;6.946;2022-10-22T03:11:38;16.00;99.90
4615;DHT22;2320;51.362;6.946;2022-10-22T03:14:03;16.00;99.90
4615;DHT22;2320;51.362;6.946;2022-10-22T03:16:29;16.00;99.90
4615;DHT22;2320;51.362;6.946;2022-10-22T03:18:55;16.00;99.90
4615;DHT22;2320;51.362;6.946;2022-10-22T03:23:48;16.00;99.90
4615;DHT22;2320;51.362;6.946;2022-10-22T03:26:14;15.90;99.90
4615;DHT22;2320;51.362;6.946;2022-10-22T03:28:40;15.90;99.90
4615;DHT22;2320;51.362;6.946;2022-10-22T03:31:06;15.90;99.90
4615;DHT22;2320;51.362;6.946;2022-10-22T03:33:31;15.90;99.90
4615;DHT22;2320;51.362;6.946;2022-10-22T03:35:57;15.80;99.90
4615;DHT22;2320;51.362;6.946;2022-10-22T03:38:22;15.80;99.90
4615;DHT22;2320;51.362;6.946;2022-10-22T03:40:48;15.80;99.90
4615;DHT22;2320;51.362;6.946;2022-10-22T03:43:14;15.80;99.90
4615;DHT22;2320;51.362;6.946;2022-10-22T03:45:39;15.80;99.90
4615;DHT22;2320;51.362;6.946;2022-10-22T03:48:05;15.80;99.90
4615;DHT22;2320;51.362;6.946;2022-10-22T03:50:30;15.80;99.90
4615;DHT22;2320;51.362;6.946;2022-10-22T03:52:56;15.80;99.90
4615;DHT22;2320;51.362;6.946;2022-10-22T03:55:22;15.80;99.90
4615;DHT22;2320;51.362;6.946;2022-10-22T03:57:48;15.80;99.90
4615;DHT22;2320;51.362;6.946;2022-10-22T04:00:14;15.80;99.90
4615;DHT22;2320;51.362;6.946;2022-10-22T04:02:39;15.80;99.90
4615;DHT22;2320;51.362;6.946;2022-10-22T04:05:05;15.80;99.90
4615;DHT22;2320;51.362;6.946;2022-10-22T04:07:31;15.70;99.90
4615;DHT22;2320;51.362;6.946;2022-10-22T04:09:56;15.70;99.90
4615;DHT22;2320;51.362;6.946;2022-10-22T04:12:22;15.70;99.90
4615;DHT22;2320;51.362;6.946;2022-10-22T04:14:47;15.70;99.90
4615;DHT22;2320;51.362;6.946;2022-10-22T04:17:12;15.70;99.90
4615;DHT22;2320;51.362;6.946;2022-10-22T04:19:38;15.70;99.90
4615;DHT22;2320;51.362;6.946;2022-10-22T04:22:03;15.80;99.90
4615;DHT22;2320;51.362;6.946;2022-10-22T04:24:29;15.80;99.90
4615;DHT22;2320;51.362;6.946;2022-10-22T04:26:55;15.80;99.90
4615;DHT22;2320;51.362;6.946;2022-10-22T04:29:21;15.80;99.90
4615;DHT22;2320;51.362;6.946;2022-10-22T04:31:47;15.80;99.90
4615;DHT22;2320;51.362;6.946;2022-10-22T04:34:12;15.80;99.90
4615;DHT22;2320;51.362;6.946;2022-10-22T04:36:37;15.80;99.90
4615;DHT22;2320;51.362;6.946;2022-10-22T04:39:03;15.80;99.90
4615;DHT22;2320;51.362;6.946;2022-10-22T04:41:30;15.70;99.90
4615;DHT22;2320;51.362;6.946;2022-10-22T04:43:56;15.70;99.90
4615;DHT22;2320;51.362;6.946;2022-10-22T04:46:22;15.70;99.90
4615;DHT22;2320;51.362;6.946;2022-10-22T04:48:48;15.70;99.90
4615;DHT22;2320;51.362;6.946;2022-10-22T04:51:15;15.80;99.90
4615;DHT22;2320;51.362;6.946;2022-10-22T04:53:42;15.80;99.90
4615;DHT22;2320;51.362;6.946;2022-10-22T04:58:36;15.80;99.90
4615;DHT22;2320;51.362;6.946;2022-10-22T05:01:15;15.80;99.90
4615;DHT22;2320;51.362;6.946;2022-10-22T05:03:41;15.80;99.90
4615;DHT22;2320;51.362;6.946;2022-10-22T05:06:06;15.80;99.90
4615;DHT22;2320;51.362;6.946;2022-10-22T05:08:32;15.80;99.90
4615;DHT22;2320;51.362;6.946;2022-10-22T05:10:58;15.80;99.90
4615;DHT22;2320;51.362;6.946;2022-10-22T05:13:23;15.80;99.90
4615;DHT22;2320;51.362;6.946;2022-10-22T05:15:49;15.80;99.90
4615;DHT22;2320;51.362;6.946;2022-10-22T05:18:14;15.70;99.90
4615;DHT22;2320;51.362;6.946;2022-10-22T05:20:40;15.70;99.90
4615;DHT22;2320;51.362;6.946;2022-10-22T05:23:06;15.80;99.90
4615;DHT22;2320;51.362;6.946;2022-10-22T05:25:35;15.80;99.90
4615;DHT22;2320;51.362;6.946;2022-10-22T05:28:01;15.70;99.90
4615;DHT22;2320;51.362;6.946;2022-10-22T05:30:26;15.60;99.90
4615;DHT22;2320;51.362;6.946;2022-10-22T05:32:52;15.70;99.90
4615;DHT22;2320;51.362;6.946;2022-10-22T05:35:17;15.50;99.90
4615;DHT22;2320;51.362;6.946;2022-10-22T05:37:43;15.50;99.90
4615;DHT22;2320;51.362;6.946;2022-10-22T05:40:08;15.60;99.90
4615;DHT22;2320;51.362;6.946;2022-10-22T05:42:34;15.60;99.90
4615;DHT22;2320;51.362;6.946;2022-10-22T05:44:59;15.50;99.90
4615;DHT22;2320;51.362;6.946;2022-10-22T05:47:25;15.60;99.90
4615;DHT22;2320;51.362;6.946;2022-10-22T05:49:51;15.50;99.90
4615;DHT22;2320;51.362;6.946;2022-10-22T05:52:16;15.40;99.90
4615;DHT22;2320;51.362;6.946;2022-10-22T05:54:42;15.40;99.90
4615;DHT22;2320;51.362;6.946;2022-10-22T05:57:07;15.40;99.90
4615;DHT22;2320;51.362;6.946;2022-10-22T05:59:32;15.40;99.90
4615;DHT22;2320;51.362;6.946;2022-10-22T06:01:58;15.40;99.90
4615;DHT22;2320;51.362;6.946;2022-10-22T06:04:23;15.50;99.90
4615;DHT22;2320;51.362;6.946;2022-10-22T06:06:49;15.40;99.90
4615;DHT22;2320;51.362;6.946;2022-10-22T06:11:41;15.40;99.90
4615;DHT22;2320;51.362;6.946;2022-10-22T06:14:07;15.30;99.90
4615;DHT22;2320;51.362;6.946;2022-10-22T06:16:33;15.30;99.90
4615;DHT22;2320;51.362;6.946;2022-10-22T06:18:58;15.30;99.90
4615;DHT22;2320;51.362;6.946;2022-10-22T06:21:26;15.30;99.90
4615;DHT22;2320;51.362;6.946;2022-10-22T06:23:54;15.30;99.90
4615;DHT22;2320;51.362;6.946;2022-10-22T06:26:20;15.40;99.90
4615;DHT22;2320;51.362;6.946;2022-10-22T06:28:45;15.50;99.90
4615;DHT22;2320;51.362;6.946;2022-10-22T06:31:11;15.50;99.90
4615;DHT22;2320;51.362;6.946;2022-10-22T06:33:36;15.60;99.90
4615;DHT22;2320;51.362;6.946;2022-10-22T06:36:10;15.70;99.90
4615;DHT22;2320;51.362;6.946;2022-10-22T06:38:36;15.80;99.90
4615;DHT22;2320;51.362;6.946;2022-10-22T06:41:06;16.10;99.90
4615;DHT22;2320;51.362;6.946;2022-10-22T06:43:31;16.40;99.90
4615;DHT22;2320;51.362;6.946;2022-10-22T06:45:58;16.80;99.90
4615;DHT22;2320;51.362;6.946;2022-10-22T06:48:23;17.30;99.90
4615;DHT22;2320;51.362;6.946;2022-10-22T06:50:49;17.70;99.90
4615;DHT22;2320;51.362;6.946;2022-10-22T06:53:14;18.20;99.90
4615;DHT22;2320;51.362;6.946;2022-10-22T06:55:40;18.50;99.90
4615;DHT22;2320;51.362;6.946;2022-10-22T06:58:05;18.60;99.90
4615;DHT22;2320;51.362;6.946;2022-10-22T07:00:31;18.70;99.90
4615;DHT22;2320;51.362;6.946;2022-10-22T07:02:57;18.30;99.90
4615;DHT22;2320;51.362;6.946;2022-10-22T07:05:22;18.00;99.90
4615;DHT22;2320;51.362;6.946;2022-10-22T07:07:47;18.50;99.90
4615;DHT22;2320;51.362;6.946;2022-10-22T07:10:13;19.00;99.90
4615;DHT22;2320;51.362;6.946;2022-10-22T07:12:38;19.60;99.90
4615;DHT22;2320;51.362;6.946;2022-10-22T07:15:04;20.40;99.90
4615;DHT22;2320;51.362;6.946;2022-10-22T07:17:30;21.10;99.90
4615;DHT22;2320;51.362;6.946;2022-10-22T07:19:55;21.90;99.90
4615;DHT22;2320;51.362;6.946;2022-10-22T07:22:21;22.50;99.90
4615;DHT22;2320;51.362;6.946;2022-10-22T07:24:46;22.80;99.90
4615;DHT22;2320;51.362;6.946;2022-10-22T07:27:12;23.20;99.90
4615;DHT22;2320;51.362;6.946;2022-10-22T07:29:37;23.80;99.90
4615;DHT22;2320;51.362;6.946;2022-10-22T07:32:03;23.90;99.90
4615;DHT22;2320;51.362;6.946;2022-10-22T07:34:28;24.40;99.90
4615;DHT22;2320;51.362;6.946;2022-10-22T07:36:54;24.70;99.90
4615;DHT22;2320;51.362;6.946;2022-10-22T07:39:21;25.00;99.90
4615;DHT22;2320;51.362;6.946;2022-10-22T07:41:47;25.20;99.90
4615;DHT22;2320;51.362;6.946;2022-10-22T07:44:12;25.60;99.90
4615;DHT22;2320;51.362;6.946;2022-10-22T07:46:37;25.30;99.90
4615;DHT22;2320;51.362;6.946;2022-10-22T07:49:03;24.90;99.90
4615;DHT22;2320;51.362;6.946;2022-10-22T07:51:29;24.20;99.90
4615;DHT22;2320;51.362;6.946;2022-10-22T07:53:54;23.70;99.90
4615;DHT22;2320;51.362;6.946;2022-10-22T07:56:20;23.20;99.90
4615;DHT22;2320;51.362;6.946;2022-10-22T07:58:45;22.80;99.90
4615;DHT22;2320;51.362;6.946;2022-10-22T08:01:11;22.40;99.90
4615;DHT22;2320;51.362;6.946;2022-10-22T08:03:36;22.50;99.90
4615;DHT22;2320;51.362;6.946;2022-10-22T08:06:02;22.60;99.90
4615;DHT22;2320;51.362;6.946;2022-10-22T08:08:27;22.50;99.90
4615;DHT22;2320;51.362;6.946;2022-10-22T08:10:54;22.20;99.90
4615;DHT22;2320;51.362;6.946;2022-10-22T08:13:20;21.80;99.90
4615;DHT22;2320;51.362;6.946;2022-10-22T08:15:46;21.70;99.90
4615;DHT22;2320;51.362;6.946;2022-10-22T08:18:12;21.50;99.90
4615;DHT22;2320;51.362;6.946;2022-10-22T08:20:38;21.50;99.90
4615;DHT22;2320;51.362;6.946;2022-10-22T08:23:03;21.50;99.90
4615;DHT22;2320;51.362;6.946;2022-10-22T08:25:29;21.10;99.90
4615;DHT22;2320;51.362;6.946;2022-10-22T08:27:55;20.80;99.90
4615;DHT22;2320;51.362;6.946;2022-10-22T08:30:20;20.60;99.90
4615;DHT22;2320;51.362;6.946;2022-10-22T08:32:46;20.20;99.90
4615;DHT22;2320;51.362;6.946;2022-10-22T08:35:11;20.10;99.90
4615;DHT22;2320;51.362;6.946;2022-10-22T08:37:37;19.80;99.90
4615;DHT22;2320;51.362;6.946;2022-10-22T08:40:03;19.60;99.90
4615;DHT22;2320;51.362;6.946;2022-10-22T08:42:46;19.40;99.90
4615;DHT22;2320;51.362;6.946;2022-10-22T08:45:18;19.10;99.90
4615;DHT22;2320;51.362;6.946;2022-10-22T08:53:01;18.80;99.90
4615;DHT22;2320;51.362;6.946;2022-10-22T08:55:27;18.80;99.90
4615;DHT22;2320;51.362;6.946;2022-10-22T08:58:00;18.80;99.90
4615;DHT22;2320;51.362;6.946;2022-10-22T09:00:40;18.80;99.90
4615;DHT22;2320;51.362;6.946;2022-10-22T09:03:17;18.80;99.90
4615;DHT22;2320;51.362;6.946;2022-10-22T09:06:02;18.80;99.90
4615;DHT22;2320;51.362;6.946;2022-10-22T09:08:29;18.80;99.90
4615;DHT22;2320;51.362;6.946;2022-10-22T09:11:19;18.90;99.90
4615;DHT22;2320;51.362;6.946;2022-10-22T09:13:42;19.00;99.90
4615;DHT22;2320;51.362;6.946;2022-10-22T09:16:19;19.10;99.90
4615;DHT22;2320;51.362;6.946;2022-10-22T09:18:58;19.20;99.90
4615;DHT22;2320;51.362;6.946;2022-10-22T09:21:32;19.30;99.90
4615;DHT22;2320;51.362;6.946;2022-10-22T09:24:03;19.40;99.90
4615;DHT22;2320;51.362;6.946;2022-10-22T09:26:30;19.50;99.90
4615;DHT22;2320;51.362;6.946;2022-10-22T09:28:58;19.50;99.90
4615;DHT22;2320;51.362;6.946;2022-10-22T09:31:25;19.60;99.90
4615;DHT22;2320;51.362;6.946;2022-10-22T09:33:51;19.50;99.90
4615;DHT22;2320;51.362;6.946;2022-10-22T09:36:17;19.50;99.90
4615;DHT22;2320;51.362;6.946;2022-10-22T09:38:50;19.30;99.90
4615;DHT22;2320;51.362;6.946;2022-10-22T09:41:17;19.20;99.90
4615;DHT22;2320;51.362;6.946;2022-10-22T09:43:45;19.20;99.90
4615;DHT22;2320;51.362;6.946;2022-10-22T09:46:15;19.10;99.90
4615;DHT22;2320;51.362;6.946;2022-10-22T09:48:42;19.00;99.90
4615;DHT22;2320;51.362;6.946;2022-10-22T09:53:38;18.90;99.90
4615;DHT22;2320;51.362;6.946;2022-10-22T09:56:14;18.90;99.90
4615;DHT22;2320;51.362;6.946;2022-10-22T09:58:42;18.80;99.90
4615;DHT22;2320;51.362;6.946;2022-10-22T10:01:15;18.80;99.90
4615;DHT22;2320;51.362;6.946;2022-10-22T10:03:41;18.80;99.90
4615;DHT22;2320;51.362;6.946;2022-10-22T10:06:06;18.90;99.90
4615;DHT22;2320;51.362;6.946;2022-10-22T10:08:32;18.90;99.90
4615;DHT22;2320;51.362;6.946;2022-10-22T10:11:11;19.00;99.90
4615;DHT22;2320;51.362;6.946;2022-10-22T10:16:39;19.10;99.90
4615;DHT22;2320;51.362;6.946;2022-10-22T10:19:20;19.20;99.90
4615;DHT22;2320;51.362;6.946;2022-10-22T10:21:50;19.20;99.90
4615;DHT22;2320;51.362;6.946;2022-10-22T10:24:31;19.30;99.90
4615;DHT22;2320;51.362;6.946;2022-10-22T10:29:30;19.30;99.90
4615;DHT22;2320;51.362;6.946;2022-10-22T10:32:26;19.30;99.90
4615;DHT22;2320;51.362;6.946;2022-10-22T10:35:02;19.40;99.90
4615;DHT22;2320;51.362;6.946;2022-10-22T10:37:29;19.40;99.90
4615;DHT22;2320;51.362;6.946;2022-10-22T10:40:14;19.40;99.90
4615;DHT22;2320;51.362;6.946;2022-10-22T10:42:45;19.40;99.90
4615;DHT22;2320;51.362;6.946;2022-10-22T10:45:15;19.40;99.90
4615;DHT22;2320;51.362;6.946;2022-10-22T10:53:13;19.40;99.90
4615;DHT22;2320;51.362;6.946;2022-10-22T10:58:17;19.70;99.90
4615;DHT22;2320;51.362;6.946;2022-10-22T11:04:06;19.80;99.90
4615;DHT22;2320;51.362;6.946;2022-10-22T11:06:03;19.80;99.90
4615;DHT22;2320;51.362;6.946;2022-10-22T11:08:33;19.80;99.90
4615;DHT22;2320;51.362;6.946;2022-10-22T11:11:02;19.70;99.90
4615;DHT22;2320;51.362;6.946;2022-10-22T11:13:32;19.60;99.90
4615;DHT22;2320;51.362;6.946;2022-10-22T11:18:54;19.70;99.90
4615;DHT22;2320;51.362;6.946;2022-10-22T11:29:08;19.60;99.90
4615;DHT22;2320;51.362;6.946;2022-10-22T11:31:35;19.60;99.90
4615;DHT22;2320;51.362;6.946;2022-10-22T11:34:13;19.70;99.90
4615;DHT22;2320;51.362;6.946;2022-10-22T11:36:40;19.80;99.90
4615;DHT22;2320;51.362;6.946;2022-10-22T11:39:06;19.80;99.90
4615;DHT22;2320;51.362;6.946;2022-10-22T11:41:32;19.80;99.90
4615;DHT22;2320;51.362;6.946;2022-10-22T11:46:34;19.70;99.90
4615;DHT22;2320;51.362;6.946;2022-10-22T11:49:24;19.70;99.90
4615;DHT22;2320;51.362;6.946;2022-10-22T11:51:48;19.70;99.90
4615;DHT22;2320;51.362;6.946;2022-10-22T11:54:28;19.70;99.90
4615;DHT22;2320;51.362;6.946;2022-10-22T11:57:36;19.60;99.90
4615;DHT22;2320;51.362;6.946;2022-10-22T12:02:22;19.50;99.90
4615;DHT22;2320;51.362;6.946;2022-10-22T12:04:48;19.50;99.90
4615;DHT22;2320;51.362;6.946;2022-10-22T12:09:54;19.20;99.90
4615;DHT22;2320;51.362;6.946;2022-10-22T12:12:21;19.40;99.90
4615;DHT22;2320;51.362;6.946;2022-10-22T12:14:51;19.40;99.90
4615;DHT22;2320;51.362;6.946;2022-10-22T12:17:17;19.50;99.90
4615;DHT22;2320;51.362;6.946;2022-10-22T12:20:00;19.50;99.90
4615;DHT22;2320;51.362;6.946;2022-10-22T12:22:30;19.60;99.90
4615;DHT22;2320;51.362;6.946;2022-10-22T12:24:59;19.70;99.90
4615;DHT22;2320;51.362;6.946;2022-10-22T12:27:34;19.70;99.90
4615;DHT22;2320;51.362;6.946;2022-10-22T12:30:01;19.70;99.90
4615;DHT22;2320;51.362;6.946;2022-10-22T12:32:37;19.80;99.90
4615;DHT22;2320;51.362;6.946;2022-10-22T12:35:06;19.80;99.90
4615;DHT22;2320;51.362;6.946;2022-10-22T12:37:33;19.80;99.90
4615;DHT22;2320;51.362;6.946;2022-10-22T12:39:59;20.00;99.90
4615;DHT22;2320;51.362;6.946;2022-10-22T12:42:24;20.00;99.90
4615;DHT22;2320;51.362;6.946;2022-10-22T12:44:53;19.90;99.90
4615;DHT22;2320;51.362;6.946;2022-10-22T12:47:18;20.00;99.90
4615;DHT22;2320;51.362;6.946;2022-10-22T12:49:48;20.00;99.90
4615;DHT22;2320;51.362;6.946;2022-10-22T12:52:15;20.00;99.90
4615;DHT22;2320;51.362;6.946;2022-10-22T12:54:41;19.90;99.90
4615;DHT22;2320;51.362;6.946;2022-10-22T12:57:10;19.90;99.90
4615;DHT22;2320;51.362;6.946;2022-10-22T12:59:37;19.90;99.90
4615;DHT22;2320;51.362;6.946;2022-10-22T13:02:19;19.80;99.90
4615;DHT22;2320;51.362;6.946;2022-10-22T13:07:37;19.60;99.90
4615;DHT22;2320;51.362;6.946;2022-10-22T13:10:13;19.70;99.90
4615;DHT22;2320;51.362;6.946;2022-10-22T13:12:39;19.90;99.90
4615;DHT22;2320;51.362;6.946;2022-10-22T13:20:57;20.00;99.90
4615;DHT22;2320;51.362;6.946;2022-10-22T13:23:25;19.90;99.90
4615;DHT22;2320;51.362;6.946;2022-10-22T13:28:23;19.70;99.90
4615;DHT22;2320;51.362;6.946;2022-10-22T13:30:57;19.70;99.90
4615;DHT22;2320;51.362;6.946;2022-10-22T13:33:24;19.70;99.90
4615;DHT22;2320;51.362;6.946;2022-10-22T13:35:51;19.60;99.90
4615;DHT22;2320;51.362;6.946;2022-10-22T13:38:18;19.60;99.90
4615;DHT22;2320;51.362;6.946;2022-10-22T13:40:44;19.70;99.90
4615;DHT22;2320;51.362;6.946;2022-10-22T13:43:09;19.60;99.90
4615;DHT22;2320;51.362;6.946;2022-10-22T13:45:35;19.70;99.90
4615;DHT22;2320;51.362;6.946;2022-10-22T13:48:00;19.70;99.90
4615;DHT22;2320;51.362;6.946;2022-10-22T13:50:26;19.70;99.90
4615;DHT22;2320;51.362;6.946;2022-10-22T13:52:53;19.60;99.90
4615;DHT22;2320;51.362;6.946;2022-10-22T13:55:19;19.50;99.90
4615;DHT22;2320;51.362;6.946;2022-10-22T13:57:45;19.40;99.90
4615;DHT22;2320;51.362;6.946;2022-10-22T14:00:15;19.40;99.90
4615;DHT22;2320;51.362;6.946;2022-10-22T14:02:41;19.50;99.90
4615;DHT22;2320;51.362;6.946;2022-10-22T14:05:07;19.60;99.90
4615;DHT22;2320;51.362;6.946;2022-10-22T14:07:34;19.60;99.90
4615;DHT22;2320;51.362;6.946;2022-10-22T14:10:00;19.80;99.90
4615;DHT22;2320;51.362;6.946;2022-10-22T14:12:25;19.80;99.90
4615;DHT22;2320;51.362;6.946;2022-10-22T14:14:52;19.80;99.90
4615;DHT22;2320;51.362;6.946;2022-10-22T14:17:18;19.60;99.90
4615;DHT22;2320;51.362;6.946;2022-10-22T14:19:44;19.60;99.90
4615;DHT22;2320;51.362;6.946;2022-10-22T14:22:12;19.70;99.90
4615;DHT22;2320;51.362;6.946;2022-10-22T14:24:38;19.80;99.90
4615;DHT22;2320;51.362;6.946;2022-10-22T14:27:03;19.70;99.90
4615;DHT22;2320;51.362;6.946;2022-10-22T14:29:29;19.50;99.90
4615;DHT22;2320;51.362;6.946;2022-10-22T14:31:54;19.50;99.90
4615;DHT22;2320;51.362;6.946;2022-10-22T14:34:21;19.60;99.90
4615;DHT22;2320;51.362;6.946;2022-10-22T14:36:47;19.50;99.90
4615;DHT22;2320;51.362;6.946;2022-10-22T14:39:12;19.50;99.90
4615;DHT22;2320;51.362;6.946;2022-10-22T14:41:38;19.30;99.90
4615;DHT22;2320;51.362;6.946;2022-10-22T14:44:03;19.30;99.90
4615;DHT22;2320;51.362;6.946;2022-10-22T14:46:29;19.30;99.90
4615;DHT22;2320;51.362;6.946;2022-10-22T14:48:55;19.40;99.90
4615;DHT22;2320;51.362;6.946;2022-10-22T14:51:20;19.30;99.90
4615;DHT22;2320;51.362;6.946;2022-10-22T14:53:46;19.40;99.90
4615;DHT22;2320;51.362;6.946;2022-10-22T14:56:13;19.30;99.90
4615;DHT22;2320;51.362;6.946;2022-10-22T14:58:39;19.40;99.90
4615;DHT22;2320;51.362;6.946;2022-10-22T15:01:05;19.30;99.90
4615;DHT22;2320;51.362;6.946;2022-10-22T15:03:30;19.30;99.90
4615;DHT22;2320;51.362;6.946;2022-10-22T15:05:56;19.40;99.90
4615;DHT22;2320;51.362;6.946;2022-10-22T15:08:21;19.20;99.90
4615;DHT22;2320;51.362;6.946;2022-10-22T15:10:57;19.30;99.90
4615;DHT22;2320;51.362;6.946;2022-10-22T15:13:23;19.10;99.90
4615;DHT22;2320;51.362;6.946;2022-10-22T15:15:48;19.10;99.90
4615;DHT22;2320;51.362;6.946;2022-10-22T15:18:13;19.10;99.90
4615;DHT22;2320;51.362;6.946;2022-10-22T15:20:39;19.10;99.90
4615;DHT22;2320;51.362;6.946;2022-10-22T15:23:04;19.10;99.90
4615;DHT22;2320;51.362;6.946;2022-10-22T15:25:30;19.10;99.90
4615;DHT22;2320;51.362;6.946;2022-10-22T15:27:55;19.10;99.90
4615;DHT22;2320;51.362;6.946;2022-10-22T15:30:21;19.20;99.90
4615;DHT22;2320;51.362;6.946;2022-10-22T15:32:46;19.20;99.90
4615;DHT22;2320;51.362;6.946;2022-10-22T15:35:12;19.30;99.90
4615;DHT22;2320;51.362;6.946;2022-10-22T15:37:37;19.10;99.90
4615;DHT22;2320;51.362;6.946;2022-10-22T15:40:04;19.00;99.90
4615;DHT22;2320;51.362;6.946;2022-10-22T15:42:31;18.90;99.90
4615;DHT22;2320;51.362;6.946;2022-10-22T15:44:57;18.80;99.90
4615;DHT22;2320;51.362;6.946;2022-10-22T15:47:23;18.70;99.90
4615;DHT22;2320;51.362;6.946;2022-10-22T15:49:52;18.80;99.90
4615;DHT22;2320;51.362;6.946;2022-10-22T15:52:18;18.60;99.90
4615;DHT22;2320;51.362;6.946;2022-10-22T15:54:44;18.30;99.90
4615;DHT22;2320;51.362;6.946;2022-10-22T15:57:10;18.30;99.90
4615;DHT22;2320;51.362;6.946;2022-10-22T15:59:35;18.00;99.90
4615;DHT22;2320;51.362;6.946;2022-10-22T16:02:01;17.90;99.90
4615;DHT22;2320;51.362;6.946;2022-10-22T16:04:27;17.70;99.90
4615;DHT22;2320;51.362;6.946;2022-10-22T16:06:52;17.80;99.90
4615;DHT22;2320;51.362;6.946;2022-10-22T16:09:19;17.70;99.90
4615;DHT22;2320;51.362;6.946;2022-10-22T16:11:47;17.60;99.90
4615;DHT22;2320;51.362;6.946;2022-10-22T16:14:13;17.40;99.90
4615;DHT22;2320;51.362;6.946;2022-10-22T16:16:43;17.50;99.90
4615;DHT22;2320;51.362;6.946;2022-10-22T16:19:10;17.50;99.90
4615;DHT22;2320;51.362;6.946;2022-10-22T16:21:36;17.30;99.90
4615;DHT22;2320;51.362;6.946;2022-10-22T16:24:01;17.30;99.90
4615;DHT22;2320;51.362;6.946;2022-10-22T16:26:27;17.30;99.90
4615;DHT22;2320;51.362;6.946;2022-10-22T16:28:52;17.20;99.90
4615;DHT22;2320;51.362;6.946;2022-10-22T16:31:18;17.20;99.90
4615;DHT22;2320;51.362;6.946;2022-10-22T16:33:46;17.10;99.90
4615;DHT22;2320;51.362;6.946;2022-10-22T16:36:13;17.10;99.90
4615;DHT22;2320;51.362;6.946;2022-10-22T16:38:38;17.10;99.90
4615;DHT22;2320;51.362;6.946;2022-10-22T16:41:20;16.90;99.90
4615;DHT22;2320;51.362;6.946;2022-10-22T16:43:47;16.90;99.90
4615;DHT22;2320;51.362;6.946;2022-10-22T16:46:13;16.60;99.90
4615;DHT22;2320;51.362;6.946;2022-10-22T16:48:38;16.70;99.90
4615;DHT22;2320;51.362;6.946;2022-10-22T16:51:16;16.80;99.90
4615;DHT22;2320;51.362;6.946;2022-10-22T16:53:42;16.80;99.90
4615;DHT22;2320;51.362;6.946;2022-10-22T16:56:08;16.80;99.90
4615;DHT22;2320;51.362;6.946;2022-10-22T16:58:35;16.40;99.90
4615;DHT22;2320;51.362;6.946;2022-10-22T17:01:04;16.30;99.90
4615;DHT22;2320;51.362;6.946;2022-10-22T17:03:29;16.30;99.90
4615;DHT22;2320;51.362;6.946;2022-10-22T17:05:57;16.30;99.90
4615;DHT22;2320;51.362;6.946;2022-10-22T17:08:22;16.00;99.90
4615;DHT22;2320;51.362;6.946;2022-10-22T17:10:48;16.00;99.90
4615;DHT22;2320;51.362;6.946;2022-10-22T17:13:13;16.00;99.90
4615;DHT22;2320;51.362;6.946;2022-10-22T17:15:39;15.70;99.90
4615;DHT22;2320;51.362;6.946;2022-10-22T17:18:04;15.60;99.90
4615;DHT22;2320;51.362;6.946;2022-10-22T17:20:30;15.60;99.90
4615;DHT22;2320;51.362;6.946;2022-10-22T17:22:55;15.50;99.90
4615;DHT22;2320;51.362;6.946;2022-10-22T17:25:22;15.40;99.90